Time,TemperatureF,DewpointF,PressureIn,WindDirection,WindDirectionDegrees,WindSpeedMPH,WindSpeedGustMPH,Humidity,HourlyPrecipIn,Conditions,Clouds,dailyrainin,SoftwareType,DateUTC
2013-12-03 00:02:00,39.3,35.0,30.05,East,99,2.0,3.0,84,0.00,,,0.00,weatherlink.com 1.10,2013-12-03 05:02:00,
2013-12-03 00:17:00,39.8,35.0,30.05,East,95,0.0,3.0,83,0.00,,,0.00,weatherlink.com 1.10,2013-12-03 05:17:00,
2013-12-03 00:32:00,39.5,35.0,30.05,East,96,2.0,3.0,83,0.00,,,0.00,weatherlink.com 1.10,2013-12-03 05:32:00,
2013-12-03 00:47:00,39.9,36.0,30.05,SE,126,0.0,4.0,84,0.00,,,0.00,weatherlink.com 1.10,2013-12-03 05:47:00,
2013-12-03 01:02:00,39.7,36.0,30.06,SE,126,0.0,2.0,85,0.00,,,0.00,weatherlink.com 1.10,2013-12-03 06:02:00,
2013-12-03 01:17:00,38.5,35.0,30.05,SE,126,1.0,2.0,88,0.00,,,0.00,weatherlink.com 1.10,2013-12-03 06:17:00,
2013-12-03 01:32:00,38.2,35.0,30.05,SE,130,2.0,3.0,88,0.00,,,0.00,weatherlink.com 1.10,2013-12-03 06:32:00,
2013-12-03 01:47:00,39.2,35.0,30.05,ESE,119,4.0,6.0,86,0.00,,,0.00,weatherlink.com 1.10,2013-12-03 06:47:00,
2013-12-03 02:02:00,39.6,35.0,30.05,ESE,105,0.0,3.0,84,0.00,,,0.00,weatherlink.com 1.10,2013-12-03 07:02:00,
2013-12-03 02:17:00,39.9,36.0,30.05,ESE,104,0.0,5.0,84,0.00,,,0.00,weatherlink.com 1.10,2013-12-03 07:17:00,
2013-12-03 02:32:00,39.7,35.0,30.04,East,100,3.0,5.0,84,0.00,,,0.00,weatherlink.com 1.10,2013-12-03 07:32:00,
2013-12-03 02:47:00,39.4,35.0,30.05,ESE,109,1.0,1.0,84,0.00,,,0.00,weatherlink.com 1.10,2013-12-03 07:47:00,
2013-12-03 03:02:00,38.5,34.0,30.04,ESE,109,0.0,2.0,85,0.00,,,0.00,weatherlink.com 1.10,2013-12-03 08:02:00,
2013-12-03 03:17:00,37.4,34.0,30.04,ESE,109,0.0,1.0,87,0.00,,,0.00,weatherlink.com 1.10,2013-12-03 08:17:00,
2013-12-03 03:32:00,36.8,34.0,30.05,ESE,109,0.0,0.0,88,0.00,,,0.00,weatherlink.com 1.10,2013-12-03 08:32:00,
2013-12-03 03:47:00,37.6,35.0,30.04,ESE,109,0.0,0.0,89,0.00,,,0.00,weatherlink.com 1.10,2013-12-03 08:47:00,
2013-12-03 04:02:00,37.9,35.0,30.04,ESE,109,0.0,0.0,88,0.00,,,0.00,weatherlink.com 1.10,2013-12-03 09:02:00,
2013-12-03 04:17:00,38.3,35.0,30.04,ESE,109,0.0,2.0,87,0.00,,,0.00,weatherlink.com 1.10,2013-12-03 09:17:00,
2013-12-03 04:32:00,39.6,36.0,30.05,ESE,109,0.0,2.0,85,0.00,,,0.00,weatherlink.com 1.10,2013-12-03 09:32:00,
2013-12-03 04:47:00,39.5,35.0,30.05,ESE,109,0.0,0.0,84,0.00,,,0.00,weatherlink.com 1.10,2013-12-03 09:47:00,
2013-12-03 05:02:00,39.2,35.0,30.05,ESE,109,0.0,0.0,86,0.00,,,0.00,weatherlink.com 1.10,2013-12-03 10:02:00,
2013-12-03 05:17:00,39.2,35.0,30.06,ESE,109,0.0,0.0,86,0.00,,,0.00,weatherlink.com 1.10,2013-12-03 10:17:00,
2013-12-03 05:32:00,39.5,36.0,30.06,ENE,70,0.0,1.0,86,0.00,,,0.00,weatherlink.com 1.10,2013-12-03 10:32:00,
2013-12-03 05:47:00,40.6,37.0,30.07,East,89,0.0,3.0,86,0.00,,,0.00,weatherlink.com 1.10,2013-12-03 10:47:00,
2013-12-03 06:02:00,40.7,36.0,30.07,East,90,0.0,0.0,84,0.00,,,0.00,weatherlink.com 1.10,2013-12-03 11:02:00,
2013-12-03 06:17:00,40.3,37.0,30.07,East,90,0.0,0.0,86,0.00,,,0.00,weatherlink.com 1.10,2013-12-03 11:17:00,
2013-12-03 06:32:00,40.2,37.0,30.07,East,90,0.0,0.0,87,0.00,,,0.00,weatherlink.com 1.10,2013-12-03 11:32:00,
2013-12-03 06:48:00,40.1,37.0,30.07,East,90,0.0,0.0,87,0.00,,,0.00,weatherlink.com 1.10,2013-12-03 11:48:00,
2013-12-03 07:03:00,40.0,37.0,30.07,East,99,0.0,2.0,88,0.00,,,0.00,weatherlink.com 1.10,2013-12-03 12:03:00,
2013-12-03 07:18:00,39.7,37.0,30.08,East,99,0.0,0.0,88,0.00,,,0.00,weatherlink.com 1.10,2013-12-03 12:18:00,
2013-12-03 07:33:00,39.3,36.0,30.08,East,99,0.0,0.0,89,0.00,,,0.00,weatherlink.com 1.10,2013-12-03 12:33:00,
2013-12-03 07:48:00,38.9,36.0,30.08,East,99,0.0,0.0,90,0.00,,,0.00,weatherlink.com 1.10,2013-12-03 12:48:00,
2013-12-03 08:03:00,39.1,37.0,30.08,East,99,0.0,2.0,92,0.00,,,0.00,weatherlink.com 1.10,2013-12-03 13:03:00,
2013-12-03 08:18:00,39.6,37.0,30.08,East,99,0.0,2.0,91,0.00,,,0.00,weatherlink.com 1.10,2013-12-03 13:18:00,
2013-12-03 08:33:00,39.9,37.0,30.08,East,99,0.0,2.0,90,0.00,,,0.00,weatherlink.com 1.10,2013-12-03 13:33:00,
2013-12-03 08:48:00,40.5,36.0,30.08,ESE,115,3.0,5.0,85,0.00,,,0.00,weatherlink.com 1.10,2013-12-03 13:48:00,
2013-12-03 09:03:00,41.2,37.0,30.09,ESE,118,0.0,3.0,86,0.00,,,0.00,weatherlink.com 1.10,2013-12-03 14:03:00,
2013-12-03 09:18:00,42.8,38.0,30.09,ESE,105,0.0,3.0,84,0.00,,,0.00,weatherlink.com 1.10,2013-12-03 14:18:00,
2013-12-03 09:33:00,44.7,40.0,30.10,SSE,148,6.0,7.0,84,0.00,,,0.00,weatherlink.com 1.10,2013-12-03 14:33:00,
2013-12-03 09:48:00,45.3,40.0,30.11,SE,133,5.0,8.0,82,0.00,,,0.00,weatherlink.com 1.10,2013-12-03 14:48:00,
2013-12-03 10:03:00,44.8,40.0,30.12,ESE,107,3.0,7.0,84,0.00,,,0.00,weatherlink.com 1.10,2013-12-03 15:03:00,
2013-12-03 10:18:00,44.5,40.0,30.12,East,98,3.0,5.0,84,0.00,,,0.00,weatherlink.com 1.10,2013-12-03 15:18:00,
2013-12-03 10:33:00,44.7,41.0,30.12,ENE,78,0.0,2.0,85,0.00,,,0.00,weatherlink.com 1.10,2013-12-03 15:33:00,
2013-12-03 10:48:00,45.0,41.0,30.11,SSE,152,0.0,5.0,84,0.00,,,0.00,weatherlink.com 1.10,2013-12-03 15:48:00,
2013-12-03 11:03:00,45.7,41.0,30.11,East,101,2.0,8.0,83,0.00,,,0.00,weatherlink.com 1.10,2013-12-03 16:03:00,
2013-12-03 11:18:00,45.8,41.0,30.10,ESE,111,7.0,9.0,82,0.00,,,0.00,weatherlink.com 1.10,2013-12-03 16:18:00,
2013-12-03 11:33:00,45.5,40.0,30.11,East,96,3.0,7.0,82,0.00,,,0.00,weatherlink.com 1.10,2013-12-03 16:33:00,
2013-12-03 11:48:00,45.7,41.0,30.11,SSE,165,0.0,4.0,83,0.00,,,0.00,weatherlink.com 1.10,2013-12-03 16:48:00,
2013-12-03 12:03:00,46.1,41.0,30.10,ESE,117,7.0,10.0,82,0.00,,,0.00,weatherlink.com 1.10,2013-12-03 17:03:00,
2013-12-03 12:18:00,46.3,41.0,30.07,East,86,6.0,7.0,81,0.00,,,0.00,weatherlink.com 1.10,2013-12-03 17:18:00,
2013-12-03 12:33:00,46.6,41.0,30.08,ESE,122,5.0,9.0,80,0.00,,,0.00,weatherlink.com 1.10,2013-12-03 17:33:00,
2013-12-03 12:48:00,46.7,41.0,30.09,ESE,111,0.0,6.0,80,0.00,,,0.00,weatherlink.com 1.10,2013-12-03 17:48:00,
2013-12-03 13:03:00,47.5,41.0,30.10,ESE,117,0.0,0.0,79,0.00,,,0.00,weatherlink.com 1.10,2013-12-03 18:03:00,
2013-12-03 13:18:00,47.6,41.0,30.10,ESE,118,3.0,10.0,78,0.00,,,0.00,weatherlink.com 1.10,2013-12-03 18:18:00,
2013-12-03 13:33:00,47.7,41.0,30.10,SSE,165,0.0,3.0,78,0.00,,,0.00,weatherlink.com 1.10,2013-12-03 18:33:00,
2013-12-03 13:48:00,47.9,41.0,30.10,SE,130,0.0,5.0,78,0.00,,,0.00,weatherlink.com 1.10,2013-12-03 18:48:00,
2013-12-03 14:03:00,47.9,41.0,30.09,ESE,111,0.0,5.0,76,0.00,,,0.00,weatherlink.com 1.10,2013-12-03 19:03:00,
2013-12-03 14:18:00,48.7,41.0,30.09,ESE,113,0.0,10.0,76,0.00,,,0.00,weatherlink.com 1.10,2013-12-03 19:18:00,
2013-12-03 14:33:00,49.7,42.0,30.09,WSW,250,1.0,4.0,74,0.00,,,0.00,weatherlink.com 1.10,2013-12-03 19:33:00,
2013-12-03 14:48:00,49.8,41.0,30.09,SW,217,0.0,4.0,72,0.00,,,0.00,weatherlink.com 1.10,2013-12-03 19:48:00,
2013-12-03 15:03:00,49.5,41.0,30.09,SW,221,0.0,3.0,72,0.00,,,0.00,weatherlink.com 1.10,2013-12-03 20:03:00,
2013-12-03 15:18:00,49.4,41.0,30.09,SW,221,0.0,1.0,72,0.00,,,0.00,weatherlink.com 1.10,2013-12-03 20:18:00,
2013-12-03 15:33:00,48.3,40.0,30.09,SSW,194,0.0,2.0,74,0.00,,,0.00,weatherlink.com 1.10,2013-12-03 20:33:00,
2013-12-03 15:48:00,48.0,40.0,30.09,WSW,243,0.0,1.0,74,0.00,,,0.00,weatherlink.com 1.10,2013-12-03 20:48:00,
2013-12-03 16:03:00,46.7,40.0,30.09,WSW,243,0.0,1.0,76,0.00,,,0.00,weatherlink.com 1.10,2013-12-03 21:03:00,
2013-12-03 16:19:00,45.0,39.0,30.09,South,188,0.0,0.0,79,0.00,,,0.00,weatherlink.com 1.10,2013-12-03 21:19:00,
2013-12-03 16:34:00,44.0,39.0,30.10,ESE,117,1.0,3.0,83,0.00,,,0.00,weatherlink.com 1.10,2013-12-03 21:34:00,
2013-12-03 16:49:00,44.0,39.0,30.10,SE,125,2.0,3.0,83,0.00,,,0.00,weatherlink.com 1.10,2013-12-03 21:49:00,
2013-12-03 17:04:00,42.9,38.0,30.10,SE,125,0.0,2.0,83,0.00,,,0.00,weatherlink.com 1.10,2013-12-03 22:04:00,
2013-12-03 17:19:00,42.6,38.0,30.10,ESE,123,1.0,4.0,85,0.00,,,0.00,weatherlink.com 1.10,2013-12-03 22:19:00,
2013-12-03 17:34:00,43.8,39.0,30.10,ESE,123,1.0,5.0,83,0.00,,,0.00,weatherlink.com 1.10,2013-12-03 22:34:00,
2013-12-03 17:49:00,44.1,39.0,30.10,ESE,109,2.0,7.0,83,0.00,,,0.00,weatherlink.com 1.10,2013-12-03 22:49:00,
2013-12-03 18:04:00,44.0,39.0,30.10,ESE,117,2.0,4.0,82,0.00,,,0.00,weatherlink.com 1.10,2013-12-03 23:04:00,
2013-12-03 18:19:00,44.0,39.0,30.10,East,94,0.0,7.0,83,0.00,,,0.00,weatherlink.com 1.10,2013-12-03 23:19:00,
2013-12-03 18:34:00,44.3,39.0,30.10,ESE,119,3.0,4.0,81,0.00,,,0.00,weatherlink.com 1.10,2013-12-03 23:34:00,
2013-12-03 18:49:00,44.2,39.0,30.10,ESE,114,2.0,5.0,82,0.00,,,0.00,weatherlink.com 1.10,2013-12-03 23:49:00,
2013-12-03 19:04:00,44.7,40.0,30.10,SE,142,6.0,8.0,82,0.00,,,0.00,weatherlink.com 1.10,2013-12-04 00:04:00,
2013-12-03 19:19:00,45.5,40.0,30.10,ESE,119,2.0,9.0,81,0.00,,,0.00,weatherlink.com 1.10,2013-12-04 00:19:00,
2013-12-03 19:34:00,45.3,40.0,30.10,SE,127,3.0,5.0,81,0.00,,,0.00,weatherlink.com 1.10,2013-12-04 00:34:00,
2013-12-03 19:49:00,45.5,40.0,30.10,ESE,121,2.0,11.0,80,0.00,,,0.00,weatherlink.com 1.10,2013-12-04 00:49:00,
2013-12-03 20:04:00,44.6,39.0,30.10,SE,129,3.0,7.0,81,0.00,,,0.00,weatherlink.com 1.10,2013-12-04 01:04:00,
2013-12-03 20:19:00,44.8,40.0,30.10,SE,128,4.0,9.0,82,0.00,,,0.00,weatherlink.com 1.10,2013-12-04 01:19:00,
2013-12-03 20:34:00,44.9,39.0,30.10,SE,142,1.0,7.0,81,0.00,,,0.00,weatherlink.com 1.10,2013-12-04 01:34:00,
2013-12-03 20:49:00,44.5,39.0,30.09,ESE,122,3.0,9.0,82,0.00,,,0.00,weatherlink.com 1.10,2013-12-04 01:49:00,
2013-12-03 21:04:00,44.7,40.0,30.10,ESE,115,4.0,7.0,82,0.00,,,0.00,weatherlink.com 1.10,2013-12-04 02:04:00,
2013-12-03 21:19:00,44.0,40.0,30.10,ESE,115,3.0,7.0,84,0.00,,,0.00,weatherlink.com 1.10,2013-12-04 02:19:00,
2013-12-03 21:34:00,43.7,40.0,30.10,SE,126,2.0,6.0,86,0.00,,,0.00,weatherlink.com 1.10,2013-12-04 02:34:00,
2013-12-03 21:49:00,43.7,40.0,30.11,SE,130,3.0,7.0,86,0.00,,,0.00,weatherlink.com 1.10,2013-12-04 02:49:00,
2013-12-03 22:04:00,44.0,41.0,30.12,SE,129,1.0,7.0,88,0.00,,,0.00,weatherlink.com 1.10,2013-12-04 03:04:00,
2013-12-03 22:19:00,43.8,41.0,30.12,SE,130,1.0,5.0,88,0.00,,,0.00,weatherlink.com 1.10,2013-12-04 03:19:00,
2013-12-03 22:34:00,43.8,41.0,30.12,SE,140,3.0,5.0,89,0.00,,,0.00,weatherlink.com 1.10,2013-12-04 03:34:00,
2013-12-03 22:49:00,44.2,42.0,30.12,ESE,123,1.0,7.0,90,0.00,,,0.00,weatherlink.com 1.10,2013-12-04 03:49:00,
2013-12-03 23:04:00,44.3,42.0,30.12,ESE,109,2.0,7.0,90,0.00,,,0.00,weatherlink.com 1.10,2013-12-04 04:04:00,
2013-12-03 23:19:00,44.2,42.0,30.11,ESE,116,3.0,7.0,90,0.00,,,0.00,weatherlink.com 1.10,2013-12-04 04:19:00,
2013-12-03 23:34:00,43.9,41.0,30.11,SE,129,2.0,7.0,90,0.00,,,0.00,weatherlink.com 1.10,2013-12-04 04:34:00,
2013-12-03 23:49:00,44.0,42.0,30.11,ESE,115,2.0,4.0,91,0.00,,,0.00,weatherlink.com 1.10,2013-12-04 04:49:00,